Wendover, NV

7:04 AM PDT on August 29, 2014 (GMT -0700)
Wendover | Change Station
CLOSE
Current Station
Airport
Location: Wendover,
Elevation: 4239 ft
Nearby Weather Stations

Elev 4239 ft 40.72 °N, 114.03 °W | Updated 9 minutes ago

Clear
Clear
63 °F
Feels Like 63 °F
N
5
Wind Variable Wind from South

Today
High -- | Low -- °F
--% Chance of Precip.
Yesterday
High -- | Low -- °F
Precip. -- in
6:00 AM 7:13 PM
Waxing Crescent, 14% visible
Pressure 30.08 in
Visibility 10.0 miles
Clouds Clear
Dew Point 39 °F
Humidity 42%
Rainfall 0.00 in
Snow Depth Not available.
UV 0 out of 12
Pollen 8.70 out of 12
Air Quality Not available.
Flu Activity Not available.
METAR KENV 291355Z 18004KT 10SM CLR 17/04 A3008 RMK AO1

More Conditions Fewer Conditions

Pressure 30.08 in
Visibility 10.0 miles
Clouds Clear
Dew Point 39 °F
Humidity 42%
Rainfall 0.00 in
Snow Depth Not available.
UV 0 out of 12
Pollen 8.70 out of 12
Air Quality Not available.
Flu Activity Not available.
METAR KENV 291355Z 18004KT 10SM CLR 17/04 A3008 RMK AO1

More Conditions Fewer Conditions

10-Day Weather Forecast

Almanac

Astronomy

Aug. 29, 2014 Rise Set
Actual Time 6:00 AM PDT 7:13 PM PDT
Civil Twilight 5:31 AM PDT 7:41 PM PDT
Nautical Twilight 4:58 AM PDT 8:14 PM PDT
Astronomical Twilight 4:22 AM PDT 8:50 PM PDT
Moon 9:55 AM PDT 9:11 PM PDT
Length of Visible Light 14h 09m
Length of Day
13h 12m
Tomorrow will be 2m 33s shorter.
Waxing Crescent, 14% of the Moon is Illuminated
Today
Waxing Crescent
Sep 2
First Quarter
Sep 8
Full
Sep 15
Last Quarter
Sep 24
New

Today's Extremes

State Highs State Lows

Community

WunderPhotos

Upload Photos

1,748,240 photos uploaded!

Nearby

Snow Depth

Station Depth Elevation
Dorsey Basin 1 in 8100 ft
Lamoille #3 0 in 7700 ft
Green Mountain 0 in 8000 ft
Corral Canyon 0 in 8500 ft
Draw Creek 0 in 7200 ft

Earthquake Activity

City Distance Mag. Time & Date
No recent earthquake activity has been reported nearby.
Minimum magnitude displayed is 2.5.

Coastal Water Temperatures

Place Temperature
No Stations Reporting

Nearby Weather Stations